createdAt,value
2022-10-05T00:00:18.020Z,81.62
2022-10-05T00:01:20.889Z,81.70
2022-10-05T00:02:24.160Z,81.55
2022-10-05T00:03:58.953Z,81.56
2022-10-05T00:05:02.355Z,81.56
2022-10-05T00:06:05.573Z,81.71
2022-10-05T00:07:40.601Z,81.89
2022-10-05T00:08:43.315Z,81.93
2022-10-05T00:09:46.358Z,82.06
2022-10-05T00:11:21.100Z,81.86
2022-10-05T00:12:23.716Z,82.04
2022-10-05T00:13:26.446Z,81.90
2022-10-05T00:15:01.138Z,82.10
2022-10-05T00:16:03.958Z,82.07
2022-10-05T00:17:07.165Z,81.99
2022-10-05T00:18:41.628Z,81.97
2022-10-05T00:19:44.425Z,82.13
2022-10-05T00:20:47.256Z,81.97
2022-10-05T00:22:21.806Z,81.98
2022-10-05T00:23:24.632Z,81.91
2022-10-05T00:24:27.632Z,82.02
2022-10-05T00:26:02.046Z,81.93
2022-10-05T00:27:04.859Z,81.83
2022-10-05T00:28:07.666Z,81.68
2022-10-05T00:29:42.942Z,81.74
2022-10-05T00:30:45.884Z,81.71
2022-10-05T00:31:48.706Z,81.71
2022-10-05T00:33:23.888Z,81.78
2022-10-05T00:34:26.776Z,81.82
2022-10-05T00:35:29.646Z,81.79
2022-10-05T00:37:04.222Z,81.85
2022-10-05T00:38:07.274Z,81.72
2022-10-05T00:39:10.088Z,81.86
2022-10-05T00:40:44.470Z,81.80
2022-10-05T00:41:47.200Z,81.47
2022-10-05T00:42:49.799Z,81.54
2022-10-05T00:44:24.474Z,81.76
2022-10-05T00:45:27.368Z,81.70
2022-10-05T00:46:30.580Z,81.48
2022-10-05T00:48:05.822Z,81.59
2022-10-05T00:49:08.645Z,81.37
2022-10-05T00:50:11.450Z,81.61
2022-10-05T00:51:45.935Z,81.38
2022-10-05T00:52:48.659Z,81.36
2022-10-05T00:53:51.638Z,81.47
2022-10-05T00:55:30.514Z,81.55
2022-10-05T00:56:33.355Z,81.48
2022-10-05T00:57:36.654Z,81.53
2022-10-05T00:59:11.111Z,81.51
2022-10-05T01:00:17.491Z,81.46
2022-10-05T01:01:20.398Z,81.58
2022-10-05T01:02:23.695Z,81.63
2022-10-05T01:04:06.156Z,81.45
2022-10-05T01:05:08.899Z,81.57
2022-10-05T01:06:11.745Z,81.60
2022-10-05T01:07:46.253Z,81.56
2022-10-05T01:08:48.966Z,81.74
2022-10-05T01:09:51.883Z,81.83
2022-10-05T01:11:26.547Z,81.82
2022-10-05T01:12:29.371Z,81.81
2022-10-05T01:13:31.972Z,81.82
2022-10-05T01:15:06.540Z,81.92
2022-10-05T01:16:09.303Z,81.94
2022-10-05T01:17:12.444Z,81.91
2022-10-05T01:18:46.919Z,82.14
2022-10-05T01:19:49.567Z,82.01
2022-10-05T01:20:52.311Z,82.02
2022-10-05T01:22:26.680Z,82.11
2022-10-05T01:23:29.489Z,82.08
2022-10-05T01:24:32.075Z,82.21
2022-10-05T01:26:06.429Z,82.15
2022-10-05T01:27:09.237Z,82.13
2022-10-05T01:28:12.143Z,82.10
2022-10-05T01:29:47.326Z,82.28
2022-10-05T01:30:49.955Z,82.28
2022-10-05T01:31:52.999Z,82.31
2022-10-05T01:33:27.775Z,82.29
2022-10-05T01:34:30.398Z,82.39
2022-10-05T01:35:33.270Z,82.42
2022-10-05T01:37:07.673Z,82.54
2022-10-05T01:38:10.280Z,82.45
2022-10-05T01:39:13.022Z,82.54
2022-10-05T01:40:47.586Z,82.63
2022-10-05T01:41:50.375Z,82.55
2022-10-05T01:42:53.076Z,82.56
2022-10-05T01:44:27.606Z,82.59
2022-10-05T01:45:30.385Z,82.66
2022-10-05T01:46:33.512Z,82.65
2022-10-05T01:48:08.519Z,82.68
2022-10-05T01:49:11.238Z,82.78
2022-10-05T01:50:14.072Z,82.71
2022-10-05T01:51:48.526Z,82.79
2022-10-05T01:52:51.376Z,82.74
2022-10-05T01:53:54.029Z,82.72
2022-10-05T01:55:28.627Z,82.78
2022-10-05T01:56:31.411Z,82.88
2022-10-05T01:57:34.963Z,82.84
2022-10-05T01:59:09.388Z,82.93
2022-10-05T02:00:18.141Z,83.09
2022-10-05T02:01:21.234Z,83.14
2022-10-05T02:02:24.672Z,83.12
2022-10-05T02:03:59.552Z,83.15
2022-10-05T02:05:43.558Z,83.28
2022-10-05T02:06:46.656Z,83.39
2022-10-05T02:08:21.532Z,83.32
2022-10-05T02:09:24.132Z,83.26
2022-10-05T02:10:26.842Z,83.43
2022-10-05T02:12:01.364Z,83.36
2022-10-05T02:13:04.044Z,83.44
2022-10-05T02:14:06.767Z,83.46
2022-10-05T02:15:41.261Z,83.36
2022-10-05T02:16:44.846Z,83.43
2022-10-05T02:17:47.633Z,83.42
2022-10-05T02:19:22.203Z,83.50
2022-10-05T02:20:24.913Z,83.43
2022-10-05T02:21:27.699Z,83.61
2022-10-05T02:23:02.252Z,83.68
2022-10-05T02:24:05.115Z,83.75
2022-10-05T02:25:07.811Z,83.75
2022-10-05T02:26:42.332Z,83.75
2022-10-05T02:27:45.647Z,83.92
2022-10-05T02:28:48.578Z,83.89
2022-10-05T02:30:22.936Z,83.95
2022-10-05T02:31:25.727Z,84.06
2022-10-05T02:32:28.873Z,84.10
2022-10-05T02:34:03.313Z,84.03
2022-10-05T02:35:06.004Z,84.07
2022-10-05T02:36:08.731Z,84.08
2022-10-05T02:37:43.075Z,84.14
2022-10-05T02:38:45.875Z,84.16
2022-10-05T02:39:48.584Z,84.19
2022-10-05T02:41:23.055Z,84.26
2022-10-05T02:42:26.023Z,84.34
2022-10-05T02:43:28.669Z,84.31
2022-10-05T02:45:03.047Z,84.36
2022-10-05T02:46:05.914Z,84.39
2022-10-05T02:47:08.960Z,84.33
2022-10-05T02:48:43.462Z,84.31
2022-10-05T02:49:46.152Z,84.42
2022-10-05T02:50:48.945Z,84.34
2022-10-05T02:52:23.470Z,84.40
2022-10-05T02:53:26.220Z,84.38
2022-10-05T02:54:28.999Z,84.41
2022-10-05T02:56:03.476Z,84.46
2022-10-05T02:57:06.250Z,84.52
2022-10-05T02:58:08.951Z,84.54
2022-10-05T02:59:43.393Z,84.72
2022-10-05T03:00:17.634Z,84.74
2022-10-05T03:01:20.553Z,84.73
2022-10-05T03:02:24.003Z,84.80
2022-10-05T03:03:58.565Z,84.73
2022-10-05T03:05:01.170Z,84.70
2022-10-05T03:06:03.844Z,84.76
2022-10-05T03:07:39.151Z,84.70
2022-10-05T03:08:42.016Z,84.80
2022-10-05T03:09:44.679Z,84.78
2022-10-05T03:11:24.420Z,84.89
2022-10-05T03:12:27.006Z,85.02
2022-10-05T03:13:29.753Z,85.09
2022-10-05T03:15:04.246Z,85.16
2022-10-05T03:16:07.032Z,85.16
2022-10-05T03:17:10.167Z,85.18
2022-10-05T03:18:44.585Z,85.24
2022-10-05T03:19:47.218Z,85.25
2022-10-05T03:20:49.803Z,85.29
2022-10-05T03:22:24.308Z,85.31
2022-10-05T03:23:27.137Z,85.41
2022-10-05T03:24:29.966Z,85.46
2022-10-05T03:26:04.504Z,85.54
2022-10-05T03:27:07.301Z,85.57
2022-10-05T03:28:10.210Z,85.62
2022-10-05T03:29:45.012Z,85.72
2022-10-05T03:30:47.798Z,85.80
2022-10-05T03:31:51.016Z,85.78
2022-10-05T03:33:25.451Z,85.93
2022-10-05T03:34:28.066Z,85.98
2022-10-05T03:35:30.708Z,86.00
2022-10-05T03:37:05.223Z,86.05
2022-10-05T03:38:07.876Z,85.98
2022-10-05T03:39:10.519Z,86.00
2022-10-05T03:40:44.793Z,86.08
2022-10-05T03:41:47.434Z,86.15
2022-10-05T03:42:50.170Z,86.11
2022-10-05T03:44:24.883Z,86.21
2022-10-05T03:45:27.472Z,86.32
2022-10-05T03:46:30.391Z,86.38
2022-10-05T03:48:07.404Z,86.35
2022-10-05T03:49:10.029Z,86.31
2022-10-05T03:50:12.581Z,86.34
2022-10-05T03:51:47.015Z,86.43
2022-10-05T03:52:49.564Z,86.41
2022-10-05T03:53:52.219Z,86.42
2022-10-05T03:55:26.853Z,86.45
2022-10-05T03:56:29.693Z,86.45
2022-10-05T03:57:33.052Z,86.43
2022-10-05T03:59:07.577Z,86.53
2022-10-05T04:00:17.306Z,86.44
2022-10-05T04:01:20.175Z,86.43
2022-10-05T04:02:23.349Z,86.41
2022-10-05T04:03:58.228Z,86.33
2022-10-05T04:05:00.906Z,86.27
2022-10-05T04:05:46.535Z,86.27
2022-10-05T04:06:50.341Z,86.29
2022-10-05T04:07:53.215Z,86.33
2022-10-05T04:09:33.956Z,86.29
2022-10-05T04:10:36.866Z,86.25
2022-10-05T04:11:39.762Z,86.18
2022-10-05T04:13:14.529Z,86.23
2022-10-05T04:14:17.348Z,86.17
2022-10-05T04:15:24.758Z,86.19
2022-10-05T04:17:00.120Z,86.22
2022-10-05T04:18:03.037Z,86.22
2022-10-05T04:19:06.016Z,86.15
2022-10-05T04:20:41.028Z,86.10
2022-10-05T04:21:43.944Z,86.10
2022-10-05T04:22:46.680Z,86.14
2022-10-05T04:24:21.306Z,86.14
2022-10-05T04:25:24.346Z,86.10
2022-10-05T04:26:27.192Z,86.13
2022-10-05T04:28:02.717Z,86.11
2022-10-05T04:29:12.254Z,85.99
2022-10-05T04:30:15.478Z,86.04
2022-10-05T04:31:50.616Z,85.87
2022-10-05T04:32:53.525Z,85.90
2022-10-05T04:33:56.298Z,85.84
2022-10-05T04:35:31.069Z,85.69
2022-10-05T04:36:34.139Z,85.72
2022-10-05T04:37:37.403Z,85.64
2022-10-05T04:39:16.204Z,85.63
2022-10-05T04:40:18.848Z,85.61
2022-10-05T04:41:21.925Z,85.35
2022-10-05T04:42:56.401Z,85.24
2022-10-05T04:43:59.408Z,85.18
2022-10-05T04:45:05.062Z,85.22
2022-10-05T04:46:39.803Z,85.02
2022-10-05T04:47:43.713Z,84.98
2022-10-05T04:48:46.453Z,84.70
2022-10-05T04:50:21.232Z,84.64
2022-10-05T04:51:24.103Z,84.57
2022-10-05T04:52:31.636Z,84.59
2022-10-05T04:54:06.362Z,84.46
2022-10-05T04:55:09.158Z,84.39
2022-10-05T04:56:12.409Z,84.30
2022-10-05T04:57:47.143Z,84.22
2022-10-05T04:58:50.144Z,84.17
2022-10-05T04:59:52.821Z,84.30
2022-10-05T05:00:17.891Z,84.30
2022-10-05T05:01:20.963Z,83.98
2022-10-05T05:02:23.686Z,83.85
2022-10-05T05:03:58.637Z,84.00
2022-10-05T05:05:01.776Z,83.86
2022-10-05T05:06:22.302Z,83.77
2022-10-05T05:07:57.387Z,83.26
2022-10-05T05:09:00.376Z,83.23
2022-10-05T05:10:03.217Z,83.48
2022-10-05T05:11:37.844Z,83.17
2022-10-05T05:12:40.711Z,83.15
2022-10-05T05:13:43.595Z,83.14
2022-10-05T05:15:18.553Z,83.24
2022-10-05T05:16:21.960Z,83.06
2022-10-05T05:17:25.653Z,83.10
2022-10-05T05:19:00.413Z,83.25
2022-10-05T05:20:03.411Z,83.27
2022-10-05T05:21:06.398Z,83.22
2022-10-05T05:22:40.969Z,83.22
2022-10-05T05:23:43.997Z,83.10
2022-10-05T05:24:46.811Z,83.16
2022-10-05T05:26:21.700Z,83.20
2022-10-05T05:27:31.306Z,83.23
2022-10-05T05:28:34.669Z,83.40
2022-10-05T05:30:09.325Z,83.33
2022-10-05T05:31:12.392Z,83.39
2022-10-05T05:32:16.047Z,83.32
2022-10-05T05:33:50.672Z,83.47
2022-10-05T05:34:53.473Z,83.64
2022-10-05T05:35:56.472Z,83.72
2022-10-05T05:37:36.477Z,83.57
2022-10-05T05:38:39.625Z,83.67
2022-10-05T05:39:42.518Z,83.86
2022-10-05T05:41:17.263Z,83.88
2022-10-05T05:42:20.120Z,83.86
2022-10-05T05:43:22.986Z,83.86
2022-10-05T05:44:57.726Z,84.07
2022-10-05T05:46:00.808Z,84.07
2022-10-05T05:47:19.990Z,83.95
2022-10-05T05:48:55.177Z,83.92
2022-10-05T05:50:00.831Z,83.97
2022-10-05T05:51:05.701Z,83.95
2022-10-05T05:52:40.426Z,83.83
2022-10-05T05:53:43.116Z,83.89
2022-10-05T05:54:45.950Z,83.91
2022-10-05T05:56:22.311Z,84.05
2022-10-05T05:57:25.484Z,84.04
2022-10-05T05:58:28.307Z,84.04
2022-10-05T06:00:17.324Z,83.94
2022-10-05T06:01:43.590Z,83.90
2022-10-05T06:02:48.987Z,83.99
2022-10-05T06:04:24.379Z,83.86
2022-10-05T06:05:27.254Z,83.99
2022-10-05T06:06:30.444Z,84.05
2022-10-05T06:08:11.240Z,84.09
2022-10-05T06:09:13.966Z,84.09
2022-10-05T06:10:16.938Z,84.17
2022-10-05T06:11:51.863Z,84.09
2022-10-05T06:12:58.435Z,83.94
2022-10-05T06:14:03.726Z,84.00
2022-10-05T06:15:38.070Z,84.07
2022-10-05T06:16:41.377Z,83.98
2022-10-05T06:17:44.899Z,84.04
2022-10-05T06:19:19.696Z,84.06
2022-10-05T06:20:22.533Z,83.98
2022-10-05T06:21:25.180Z,83.88
2022-10-05T06:22:59.844Z,83.86
2022-10-05T06:24:02.566Z,83.74
2022-10-05T06:25:05.284Z,83.69
2022-10-05T06:26:40.213Z,83.55
2022-10-05T06:27:43.785Z,83.52
2022-10-05T06:28:47.055Z,83.60
2022-10-05T06:30:21.569Z,83.51
2022-10-05T06:31:24.517Z,83.51
2022-10-05T06:32:28.163Z,83.26
2022-10-05T06:34:02.902Z,83.24
2022-10-05T06:35:05.935Z,83.28
2022-10-05T06:36:08.878Z,83.38
2022-10-05T06:37:43.517Z,83.45
2022-10-05T06:38:46.349Z,83.48
2022-10-05T06:39:49.200Z,83.61
2022-10-05T06:41:29.800Z,83.69
2022-10-05T06:42:32.493Z,83.56
2022-10-05T06:43:35.218Z,83.46
2022-10-05T06:45:10.170Z,83.40
2022-10-05T06:46:13.609Z,83.46
2022-10-05T06:47:16.799Z,83.33
2022-10-05T06:48:56.987Z,83.38
2022-10-05T06:49:59.846Z,83.57
2022-10-05T06:51:02.829Z,83.01
2022-10-05T06:52:37.476Z,83.12
2022-10-05T06:53:40.538Z,83.40
2022-10-05T06:54:43.251Z,83.36
2022-10-05T06:56:22.761Z,83.02
2022-10-05T06:57:26.101Z,83.05
2022-10-05T06:58:29.052Z,83.06
2022-10-05T07:00:18.140Z,82.95
2022-10-05T07:01:21.493Z,82.90
2022-10-05T07:02:25.856Z,82.93
2022-10-05T07:04:00.610Z,82.60
2022-10-05T07:05:03.362Z,82.35
2022-10-05T07:06:06.518Z,82.49
2022-10-05T07:07:41.222Z,82.49
2022-10-05T07:08:43.866Z,82.37
2022-10-05T07:09:46.603Z,82.43
2022-10-05T07:11:21.098Z,82.44
2022-10-05T07:12:24.596Z,82.39
2022-10-05T07:13:27.400Z,82.43
2022-10-05T07:15:02.198Z,82.44
2022-10-05T07:16:05.070Z,82.54
2022-10-05T07:17:08.665Z,82.29
2022-10-05T07:18:43.336Z,82.27
2022-10-05T07:19:46.182Z,82.12
2022-10-05T07:20:54.704Z,82.11
2022-10-05T07:22:33.351Z,82.05
2022-10-05T07:23:37.195Z,82.08
2022-10-05T07:24:39.990Z,82.08
2022-10-05T07:26:14.885Z,82.33
2022-10-05T07:27:17.619Z,82.20
2022-10-05T07:28:20.652Z,81.89
2022-10-05T07:29:55.945Z,81.75
2022-10-05T07:30:58.836Z,82.01
2022-10-05T07:32:02.260Z,81.87
2022-10-05T07:33:36.969Z,81.81
2022-10-05T07:34:39.870Z,81.92
2022-10-05T07:35:42.704Z,81.98
2022-10-05T07:37:17.435Z,82.03
2022-10-05T07:38:20.299Z,82.20
2022-10-05T07:39:23.603Z,82.25
2022-10-05T07:41:28.452Z,81.98
2022-10-05T07:42:31.229Z,82.12
2022-10-05T07:44:12.338Z,82.06
2022-10-05T07:45:47.652Z,81.80
2022-10-05T07:46:51.883Z,81.84
2022-10-05T07:47:54.708Z,81.88
2022-10-05T07:49:29.397Z,81.48
2022-10-05T07:50:32.902Z,81.48
2022-10-05T07:51:35.710Z,81.47
2022-10-05T07:53:15.321Z,81.40
2022-10-05T07:54:18.488Z,81.41
2022-10-05T07:55:21.301Z,81.55
2022-10-05T07:56:56.501Z,81.27
2022-10-05T07:57:59.279Z,81.27
2022-10-05T07:59:02.298Z,81.49
2022-10-05T08:00:17.700Z,81.78
2022-10-05T08:01:20.663Z,81.44
2022-10-05T08:02:24.535Z,81.57
2022-10-05T08:04:00.726Z,81.57
2022-10-05T08:05:03.674Z,81.49
2022-10-05T08:06:06.646Z,81.49
2022-10-05T08:07:42.107Z,81.22
2022-10-05T08:08:44.855Z,81.37
2022-10-05T08:09:47.649Z,80.96
2022-10-05T08:11:22.453Z,81.37
2022-10-05T08:12:25.780Z,81.56
2022-10-05T08:13:28.568Z,81.56
2022-10-05T08:15:03.035Z,81.80
2022-10-05T08:16:05.939Z,81.34
2022-10-05T08:17:09.252Z,81.40
2022-10-05T08:18:49.127Z,81.68
2022-10-05T08:19:52.086Z,81.76
2022-10-05T08:20:54.865Z,81.64
2022-10-05T08:22:30.508Z,81.62
2022-10-05T08:23:33.277Z,80.95
2022-10-05T08:24:36.135Z,81.03
2022-10-05T08:26:10.740Z,81.68
2022-10-05T08:27:13.715Z,81.40
2022-10-05T08:28:16.766Z,81.53
2022-10-05T08:29:56.422Z,81.27
2022-10-05T08:30:59.556Z,81.48
2022-10-05T08:32:03.281Z,81.35
2022-10-05T08:33:38.238Z,81.52
2022-10-05T08:34:41.221Z,81.24
2022-10-05T08:35:44.166Z,81.07
2022-10-05T08:37:18.785Z,81.45
2022-10-05T08:38:21.598Z,80.93
2022-10-05T08:39:24.629Z,81.21
2022-10-05T08:40:59.430Z,81.40
2022-10-05T08:42:02.446Z,81.70
2022-10-05T08:43:05.223Z,81.48
2022-10-05T08:44:46.663Z,81.04
2022-10-05T08:45:49.607Z,80.88
2022-10-05T08:46:52.866Z,80.99
2022-10-05T08:48:27.348Z,81.12
2022-10-05T08:49:34.881Z,81.29
2022-10-05T08:50:38.119Z,80.83
2022-10-05T08:52:12.681Z,80.58
2022-10-05T08:53:15.772Z,80.86
2022-10-05T08:54:18.438Z,80.82
2022-10-05T08:55:52.954Z,80.90
2022-10-05T08:57:01.325Z,80.39
2022-10-05T08:58:04.290Z,80.64
2022-10-05T08:59:38.894Z,80.82
2022-10-05T09:00:17.440Z,80.82
2022-10-05T09:01:20.474Z,79.79
2022-10-05T09:02:23.827Z,79.81
2022-10-05T09:03:58.893Z,79.93
2022-10-05T09:05:01.821Z,79.74
2022-10-05T09:06:04.705Z,79.07
2022-10-05T09:07:42.980Z,79.09
2022-10-05T09:08:45.773Z,79.14
2022-10-05T09:09:48.509Z,79.38
2022-10-05T09:11:28.618Z,79.42
2022-10-05T09:12:31.917Z,79.69
2022-10-05T09:13:34.625Z,79.16
2022-10-05T09:15:26.896Z,79.09
2022-10-05T09:16:30.166Z,78.94
2022-10-05T09:17:35.921Z,78.93
2022-10-05T09:19:13.802Z,78.26
2022-10-05T09:20:16.726Z,78.16
2022-10-05T09:21:19.639Z,77.73
2022-10-05T09:22:54.597Z,77.76
2022-10-05T09:23:57.582Z,77.89
2022-10-05T09:25:00.415Z,77.85
2022-10-05T09:26:35.200Z,77.55
2022-10-05T09:27:37.995Z,76.93
2022-10-05T09:28:41.512Z,77.45
2022-10-05T09:30:16.323Z,77.27
2022-10-05T09:31:19.579Z,77.03
2022-10-05T09:32:22.847Z,76.80
2022-10-05T09:33:57.485Z,76.83
2022-10-05T09:35:00.311Z,76.62
2022-10-05T09:36:02.950Z,76.77
2022-10-05T09:37:37.529Z,76.77
2022-10-05T09:38:40.512Z,76.75
2022-10-05T09:39:43.386Z,77.09
2022-10-05T09:41:24.473Z,76.98
2022-10-05T09:42:27.839Z,77.54
2022-10-05T09:43:30.906Z,77.43
2022-10-05T09:45:06.455Z,77.37
2022-10-05T09:46:13.477Z,77.24
2022-10-05T09:47:16.855Z,77.30
2022-10-05T09:48:51.767Z,77.27
2022-10-05T09:49:55.021Z,77.11
2022-10-05T09:50:58.063Z,77.39
2022-10-05T09:52:33.579Z,76.87
2022-10-05T09:53:36.408Z,77.10
2022-10-05T09:54:39.317Z,77.28
2022-10-05T09:56:14.266Z,77.23
2022-10-05T09:57:17.323Z,76.94
2022-10-05T09:58:20.075Z,76.78
2022-10-05T09:59:54.948Z,77.39
2022-10-05T10:00:18.245Z,77.39
2022-10-05T10:01:38.735Z,77.64
2022-10-05T10:02:43.035Z,76.84
2022-10-05T10:04:18.851Z,76.70
2022-10-05T10:05:21.613Z,77.14
2022-10-05T10:06:24.515Z,76.60
2022-10-05T10:07:59.356Z,77.05
2022-10-05T10:09:02.254Z,77.43
2022-10-05T10:10:05.009Z,77.14
2022-10-05T10:11:39.840Z,77.25
2022-10-05T10:12:43.211Z,77.22
2022-10-05T10:13:46.034Z,77.37
2022-10-05T10:15:20.716Z,77.65
2022-10-05T10:16:23.906Z,77.25
2022-10-05T10:17:26.868Z,76.92
2022-10-05T10:19:01.374Z,76.75
2022-10-05T10:20:04.268Z,77.21
2022-10-05T10:21:07.270Z,77.16
2022-10-05T10:22:48.469Z,76.68
2022-10-05T10:23:51.344Z,77.14
2022-10-05T10:24:54.369Z,76.71
2022-10-05T10:26:29.462Z,76.92
2022-10-05T10:27:32.804Z,76.94
2022-10-05T10:28:38.846Z,76.73
2022-10-05T10:30:13.909Z,77.29
2022-10-05T10:31:23.143Z,76.45
2022-10-05T10:32:26.695Z,76.55
2022-10-05T10:34:01.274Z,76.34
2022-10-05T10:35:04.083Z,76.44
2022-10-05T10:36:12.561Z,76.54
2022-10-05T10:37:47.233Z,76.46
2022-10-05T10:38:50.235Z,76.44
2022-10-05T10:39:53.051Z,76.31
2022-10-05T10:41:28.009Z,76.02
2022-10-05T10:42:32.114Z,75.81
2022-10-05T10:43:34.878Z,75.81
2022-10-05T10:45:09.881Z,75.71
2022-10-05T10:46:13.004Z,75.87
2022-10-05T10:47:16.524Z,75.98
2022-10-05T10:48:51.368Z,76.29
2022-10-05T10:49:54.252Z,75.70
2022-10-05T10:50:56.964Z,75.59
2022-10-05T10:52:31.468Z,75.76
2022-10-05T10:53:34.570Z,75.29
2022-10-05T10:54:37.498Z,74.49
2022-10-05T10:56:12.341Z,74.85
2022-10-05T10:57:15.154Z,75.21
2022-10-05T10:58:21.922Z,75.65
2022-10-05T10:59:56.729Z,75.18
2022-10-05T11:00:17.705Z,75.18
2022-10-05T11:01:20.817Z,75.10
2022-10-05T11:02:24.341Z,74.39
2022-10-05T11:03:59.689Z,74.58
2022-10-05T11:05:02.624Z,74.37
2022-10-05T11:06:05.515Z,74.63
2022-10-05T11:07:40.260Z,75.05
2022-10-05T11:08:43.445Z,75.07
2022-10-05T11:09:46.350Z,74.67
2022-10-05T11:11:20.983Z,74.76
2022-10-05T11:12:23.812Z,75.33
2022-10-05T11:13:31.841Z,74.78
2022-10-05T11:15:06.676Z,74.23
2022-10-05T11:16:10.424Z,74.27
2022-10-05T11:17:17.296Z,73.89
2022-10-05T11:18:52.281Z,74.00
2022-10-05T11:20:10.336Z,74.10
2022-10-05T11:21:13.339Z,74.34
2022-10-05T11:22:47.929Z,74.05
2022-10-05T11:23:50.644Z,74.20
2022-10-05T11:24:53.472Z,74.69
2022-10-05T11:26:28.538Z,74.58
2022-10-05T11:27:32.015Z,74.20
2022-10-05T11:28:35.115Z,74.61
2022-10-05T11:30:09.733Z,74.36
2022-10-05T11:31:12.952Z,74.95
2022-10-05T11:32:16.232Z,75.03
2022-10-05T11:33:50.829Z,74.48
2022-10-05T11:34:53.915Z,74.07
2022-10-05T11:35:56.728Z,74.08
2022-10-05T11:37:31.824Z,73.45
2022-10-05T11:38:34.755Z,73.93
2022-10-05T11:39:37.705Z,73.67
2022-10-05T11:41:12.409Z,73.57
2022-10-05T11:42:15.349Z,73.10
2022-10-05T11:43:18.211Z,73.76
2022-10-05T11:44:59.160Z,73.55
2022-10-05T11:46:02.412Z,73.32
2022-10-05T11:47:05.785Z,73.95
2022-10-05T11:48:40.488Z,74.12
2022-10-05T11:49:43.220Z,73.81
2022-10-05T11:50:46.089Z,74.19
2022-10-05T11:52:21.031Z,73.96
2022-10-05T11:53:24.008Z,73.82
2022-10-05T11:54:26.797Z,73.98
2022-10-05T11:56:33.962Z,74.25
2022-10-05T11:57:41.624Z,74.18
2022-10-05T11:58:44.611Z,74.08
2022-10-05T12:00:18.371Z,74.27
2022-10-05T12:01:21.336Z,74.27
2022-10-05T12:02:24.077Z,74.16
2022-10-05T12:04:05.099Z,74.06
2022-10-05T12:05:08.470Z,73.79
2022-10-05T12:06:11.424Z,73.42
2022-10-05T12:07:46.051Z,73.51
2022-10-05T12:08:49.118Z,73.45
2022-10-05T12:09:52.118Z,73.39
2022-10-05T12:11:26.713Z,73.73
2022-10-05T12:12:29.722Z,74.09
2022-10-05T12:13:32.945Z,74.44
2022-10-05T12:15:07.374Z,74.03
2022-10-05T12:16:10.189Z,73.68
2022-10-05T12:17:13.137Z,73.76
2022-10-05T12:18:48.060Z,74.06
2022-10-05T12:19:51.159Z,74.13
2022-10-05T12:20:54.153Z,73.86
2022-10-05T12:22:28.854Z,73.52
2022-10-05T12:23:31.836Z,73.77
2022-10-05T12:24:34.763Z,74.34
2022-10-05T12:26:09.683Z,74.62
2022-10-05T12:27:12.562Z,74.78
2022-10-05T12:28:16.016Z,73.51
2022-10-05T12:29:50.924Z,73.90
2022-10-05T12:30:53.874Z,74.13
2022-10-05T12:31:57.340Z,74.12
2022-10-05T12:33:32.125Z,74.38
2022-10-05T12:34:34.851Z,74.47
2022-10-05T12:35:54.534Z,74.49
2022-10-05T12:37:54.908Z,73.49
2022-10-05T12:38:57.773Z,73.36
2022-10-05T12:40:00.805Z,73.69
2022-10-05T12:41:36.085Z,73.84
2022-10-05T12:42:45.064Z,73.90
2022-10-05T12:43:47.860Z,73.75
2022-10-05T12:45:22.660Z,73.43
2022-10-05T12:46:25.881Z,73.54
2022-10-05T12:47:28.814Z,73.18
2022-10-05T12:49:08.187Z,74.35
2022-10-05T12:50:11.147Z,73.93
2022-10-05T12:51:13.865Z,74.17
2022-10-05T12:52:48.685Z,74.41
2022-10-05T12:53:51.384Z,74.10
2022-10-05T12:54:54.448Z,74.33
2022-10-05T12:56:29.511Z,73.53
2022-10-05T12:57:32.331Z,73.82
2022-10-05T12:58:35.439Z,73.91
2022-10-05T13:00:22.670Z,74.08
2022-10-05T13:01:26.505Z,73.99
2022-10-05T13:02:29.536Z,73.72
2022-10-05T13:04:04.285Z,73.79
2022-10-05T13:05:07.103Z,74.12
2022-10-05T13:06:10.655Z,73.29
2022-10-05T13:07:45.813Z,73.72
2022-10-05T13:08:48.677Z,73.62
2022-10-05T13:09:51.440Z,73.88
2022-10-05T13:11:26.088Z,74.20
2022-10-05T13:12:28.848Z,73.46
2022-10-05T13:13:31.762Z,73.46
2022-10-05T13:15:06.292Z,73.66
2022-10-05T13:16:09.543Z,73.11
2022-10-05T13:17:13.429Z,74.03
2022-10-05T13:18:49.371Z,73.71
2022-10-05T13:19:52.048Z,73.46
2022-10-05T13:20:55.031Z,73.27
2022-10-05T13:22:30.170Z,73.01
2022-10-05T13:23:33.122Z,73.77
2022-10-05T13:24:41.277Z,73.57
2022-10-05T13:26:17.026Z,73.47
2022-10-05T13:27:19.919Z,73.78
2022-10-05T13:28:22.956Z,73.65
2022-10-05T13:30:00.189Z,72.92
2022-10-05T13:31:03.278Z,73.22
2022-10-05T13:32:06.429Z,73.29
2022-10-05T13:33:41.307Z,71.91
2022-10-05T13:34:43.981Z,72.88
2022-10-05T13:35:51.943Z,72.69
2022-10-05T13:37:27.400Z,72.30
2022-10-05T13:38:30.378Z,72.67
2022-10-05T13:39:33.600Z,73.10
2022-10-05T13:41:08.536Z,72.84
2022-10-05T13:42:11.322Z,72.90
2022-10-05T13:43:14.169Z,72.78
2022-10-05T13:44:50.058Z,72.62
2022-10-05T13:45:56.767Z,72.85
2022-10-05T13:47:01.505Z,73.12
2022-10-05T13:48:36.191Z,72.42
2022-10-05T13:49:39.224Z,72.97
2022-10-05T13:50:42.519Z,72.82
2022-10-05T13:52:17.232Z,73.29
2022-10-05T13:53:19.895Z,73.14
2022-10-05T13:54:22.805Z,73.32
2022-10-05T13:55:57.647Z,72.85
2022-10-05T13:57:00.649Z,72.89
2022-10-05T13:58:03.688Z,72.70
2022-10-05T13:59:38.539Z,73.86
2022-10-05T14:00:18.190Z,73.08
2022-10-05T14:01:24.536Z,72.64
2022-10-05T14:02:27.687Z,72.56
2022-10-05T14:04:02.513Z,72.95
2022-10-05T14:05:05.488Z,72.82
2022-10-05T14:06:08.289Z,73.44
2022-10-05T14:07:42.984Z,72.36
2022-10-05T14:08:45.998Z,72.27
2022-10-05T14:09:48.753Z,72.55
2022-10-05T14:11:23.621Z,73.19
2022-10-05T14:12:26.514Z,72.78
2022-10-05T14:13:29.407Z,71.82
2022-10-05T14:15:04.266Z,71.92
2022-10-05T14:16:07.070Z,71.84
2022-10-05T14:17:10.564Z,72.48
2022-10-05T14:18:51.072Z,73.13
2022-10-05T14:19:54.329Z,72.46
2022-10-05T14:20:57.236Z,72.50
2022-10-05T14:22:32.397Z,72.35
2022-10-05T14:23:35.805Z,72.85
2022-10-05T14:24:49.546Z,73.07
2022-10-05T14:26:24.539Z,73.04
2022-10-05T14:27:27.357Z,72.76
2022-10-05T14:28:30.722Z,72.77
2022-10-05T14:30:05.605Z,72.33
2022-10-05T14:31:08.607Z,72.17
2022-10-05T14:32:12.747Z,72.28
2022-10-05T14:33:48.177Z,72.61
2022-10-05T14:34:51.814Z,72.90
2022-10-05T14:35:54.616Z,72.91
2022-10-05T14:37:36.235Z,73.03
2022-10-05T14:38:39.139Z,73.00
2022-10-05T14:39:42.214Z,73.28
2022-10-05T14:41:17.709Z,72.76
2022-10-05T14:42:20.961Z,73.18
2022-10-05T14:43:27.967Z,72.26
2022-10-05T14:45:02.655Z,72.37
2022-10-05T14:46:05.902Z,72.86
2022-10-05T14:47:16.306Z,72.55
2022-10-05T14:48:50.898Z,72.78
2022-10-05T14:49:53.948Z,72.76
2022-10-05T14:50:57.006Z,72.50
2022-10-05T14:52:31.869Z,72.80
2022-10-05T14:53:38.028Z,72.57
2022-10-05T14:54:40.945Z,72.50
2022-10-05T14:56:16.701Z,71.71
2022-10-05T14:57:19.762Z,72.08
2022-10-05T14:58:22.660Z,72.09
2022-10-05T14:59:57.433Z,72.19
2022-10-05T15:00:18.113Z,72.19
2022-10-05T15:01:21.263Z,71.49
2022-10-05T15:02:24.862Z,71.60
2022-10-05T15:03:59.676Z,72.00
2022-10-05T15:05:02.621Z,72.34
2022-10-05T15:06:05.481Z,71.96
2022-10-05T15:07:50.616Z,71.18
2022-10-05T15:08:53.573Z,71.31
2022-10-05T15:10:08.932Z,71.41
2022-10-05T15:11:44.124Z,70.41
2022-10-05T15:12:47.056Z,70.49
2022-10-05T15:13:55.212Z,70.76
2022-10-05T15:15:29.837Z,70.40
2022-10-05T15:16:32.925Z,70.82
2022-10-05T15:17:36.063Z,71.30
2022-10-05T15:19:17.788Z,70.81
2022-10-05T15:20:20.801Z,71.36
2022-10-05T15:21:23.642Z,71.11
2022-10-05T15:22:58.493Z,70.87
2022-10-05T15:24:01.569Z,71.07
2022-10-05T15:25:04.408Z,71.53
2022-10-05T15:26:39.172Z,71.21
2022-10-05T15:27:42.101Z,70.57
2022-10-05T15:28:45.326Z,70.62
2022-10-05T15:30:20.086Z,70.41
2022-10-05T15:31:23.258Z,70.68
2022-10-05T15:32:26.073Z,70.80
2022-10-05T15:34:00.820Z,71.36
2022-10-05T15:35:04.180Z,71.72
2022-10-05T15:36:07.164Z,71.58
2022-10-05T15:37:43.139Z,71.97
2022-10-05T15:38:46.073Z,72.16
2022-10-05T15:39:52.198Z,72.39
2022-10-05T15:41:26.861Z,72.02
2022-10-05T15:42:29.894Z,72.01
2022-10-05T15:43:33.051Z,71.97
2022-10-05T15:45:07.726Z,72.79
2022-10-05T15:46:10.855Z,72.14
2022-10-05T15:47:14.041Z,72.10
2022-10-05T15:48:48.801Z,72.63
2022-10-05T15:49:51.708Z,72.62
2022-10-05T15:50:54.559Z,72.25